NSZ3654 EKCH-LEVC
Flight info
| Callsign | NSZ3654 |
|---|---|
| Flight time | N/A |
| Altitude | 38000 |
| Route | NEXEN T503 MICOS DCT HAM DCT MAWEQ DCT ASBON/N0460F390 DCT ELVET DCT OBORN DCT MOROK DCT GILIR DCT GEVEA DCT INCUS DCT BALSI DCT RETNO DCT TUPOX DCT MTG DCT DIVKO DCT MAMES DCT BISBA DCT BGR DCT NENDA DCT BCN DCT RODRA DCT PEXOT DCT EBROX DCT LOTOS DCT TORDU DCT DIKUT M985 SOPET |
| Aircraft | B38M/M-SDE1FGHILORVWXY/HB1 |
Departure
| Time | 2026-05-06 18:44 |
|---|---|
| Airport | Copenhagen Kastrup Airport (EKCH) |
Arrival
| Time | N/A |
|---|---|
| Airport | Valencia Airport (LEVC) |
| Time | Latitude | Longitude | Altitude | Speed | Heading |
|---|---|---|---|---|---|
| 2026-05-06 18:23 | 55.62718 | 12.65323 | 26 ft | 0 kts | 17° |
| 2026-05-06 18:34 | 55.62718 | 12.65322 | 26 ft | 0 kts | 17° |
| 2026-05-06 18:34 | 55.62703 | 12.65314 | 31 ft | 2 kts | 16° |
| 2026-05-06 18:34 | 55.62687 | 12.65307 | 26 ft | 2 kts | 12° |
| 2026-05-06 18:35 | 55.62671 | 12.65304 | 29 ft | 2 kts | 355° |
| 2026-05-06 18:35 | 55.62655 | 12.65308 | 26 ft | 2 kts | 348° |
| 2026-05-06 18:35 | 55.62639 | 12.65315 | 30 ft | 2 kts | 345° |
| 2026-05-06 18:35 | 55.62622 | 12.65320 | 29 ft | 2 kts | 357° |
| 2026-05-06 18:36 | 55.62606 | 12.65320 | 27 ft | 2 kts | 359° |
| 2026-05-06 18:36 | 55.62599 | 12.65320 | 30 ft | 0 kts | 359° |
| 2026-05-06 18:39 | 55.62602 | 12.65320 | 26 ft | 3 kts | 359° |
| 2026-05-06 18:39 | 55.62657 | 12.65285 | 28 ft | 10 kts | 296° |
| 2026-05-06 18:39 | 55.62625 | 12.65183 | 30 ft | 10 kts | 201° |
| 2026-05-06 18:40 | 55.62425 | 12.65200 | 28 ft | 16 kts | 178° |
| 2026-05-06 18:40 | 55.62318 | 12.65202 | 26 ft | 9 kts | 187° |
| 2026-05-06 18:40 | 55.62273 | 12.65110 | 28 ft | 14 kts | 263° |
| 2026-05-06 18:40 | 55.62320 | 12.64960 | 26 ft | 15 kts | 303° |
| 2026-05-06 18:41 | 55.62348 | 12.64788 | 26 ft | 16 kts | 244° |
| 2026-05-06 18:41 | 55.62300 | 12.64601 | 28 ft | 18 kts | 246° |
| 2026-05-06 18:41 | 55.62245 | 12.64395 | 25 ft | 20 kts | 231° |
| 2026-05-06 18:41 | 55.62123 | 12.64280 | 26 ft | 20 kts | 205° |
| 2026-05-06 18:42 | 55.61997 | 12.64175 | 28 ft | 21 kts | 206° |
| 2026-05-06 18:42 | 55.61882 | 12.64076 | 26 ft | 13 kts | 205° |
| 2026-05-06 18:42 | 55.61788 | 12.64078 | 26 ft | 14 kts | 175° |
| 2026-05-06 18:42 | 55.61688 | 12.64088 | 28 ft | 14 kts | 176° |
| 2026-05-06 18:43 | 55.61601 | 12.64032 | 29 ft | 15 kts | 220° |
| 2026-05-06 18:43 | 55.61444 | 12.63790 | 27 ft | 64 kts | 221° |
| 2026-05-06 18:43 | 55.60903 | 12.62951 | 27 ft | 140 kts | 221° |
| 2026-05-06 18:43 | 55.60032 | 12.61610 | 257 ft | 186 kts | 218° |
| 2026-05-06 18:44 | 55.58928 | 12.59917 | 748 ft | 232 kts | 218° |
| 2026-05-06 18:44 | 55.57634 | 12.57942 | 1655 ft | 257 kts | 218° |
| 2026-05-06 18:44 | 55.56247 | 12.55961 | 2941 ft | 256 kts | 213° |
| 2026-05-06 18:44 | 55.54768 | 12.54144 | 3996 ft | 263 kts | 212° |
| 2026-05-06 18:45 | 55.53243 | 12.52275 | 5029 ft | 269 kts | 213° |
| 2026-05-06 18:45 | 55.51684 | 12.50362 | 6002 ft | 276 kts | 214° |
| 2026-05-06 18:45 | 55.50116 | 12.48352 | 6949 ft | 282 kts | 216° |
| 2026-05-06 18:45 | 55.48524 | 12.46300 | 7958 ft | 284 kts | 216° |
| 2026-05-06 18:46 | 55.46940 | 12.44264 | 8972 ft | 285 kts | 216° |
| 2026-05-06 18:46 | 55.45333 | 12.42203 | 9997 ft | 286 kts | 217° |